createdAt,value
2023-05-17T00:00:27.561Z,4.75
2023-05-17T00:01:00.433Z,4.75
2023-05-17T00:01:31.466Z,4.75
2023-05-17T00:02:04.332Z,4.64
2023-05-17T00:02:34.541Z,4.64
2023-05-17T00:03:08.404Z,4.64
2023-05-17T00:03:34.468Z,4.64
2023-05-17T00:03:55.519Z,4.64
2023-05-17T00:04:27.573Z,4.64
2023-05-17T00:04:59.873Z,4.64
2023-05-17T00:05:31.463Z,4.68
2023-05-17T00:06:03.526Z,4.68
2023-05-17T00:06:34.545Z,4.68
2023-05-17T00:07:07.519Z,4.58
2023-05-17T00:07:34.448Z,4.58
2023-05-17T00:07:55.520Z,4.58
2023-05-17T00:08:28.349Z,4.58
2023-05-17T00:08:59.875Z,4.58
2023-05-17T00:09:32.339Z,4.58
2023-05-17T00:10:03.546Z,4.58
2023-05-17T00:10:35.993Z,4.58
2023-05-17T00:11:07.535Z,4.58
2023-05-17T00:11:34.671Z,4.58
2023-05-17T00:11:55.586Z,4.58
2023-05-17T00:12:27.515Z,4.58
2023-05-17T00:13:00.475Z,4.58
2023-05-17T00:13:31.829Z,4.58
2023-05-17T00:14:04.396Z,4.58
2023-05-17T00:14:35.924Z,4.58
2023-05-17T00:15:08.304Z,4.58
2023-05-17T00:15:34.520Z,4.58
2023-05-17T00:15:55.536Z,4.58
2023-05-17T00:16:27.540Z,4.58
2023-05-17T00:16:59.801Z,4.58
2023-05-17T00:17:31.557Z,4.58
2023-05-17T00:18:03.632Z,4.58
2023-05-17T00:18:34.633Z,4.58
2023-05-17T00:18:51.994Z,4.53
2023-05-17T00:19:24.535Z,4.53
2023-05-17T00:19:41.807Z,4.70
2023-05-17T00:20:11.909Z,4.70
2023-05-17T00:20:34.482Z,4.70
2023-05-17T00:20:59.810Z,4.70
2023-05-17T00:21:32.299Z,4.70
2023-05-17T00:22:03.480Z,4.53
2023-05-17T00:22:35.753Z,4.53
2023-05-17T00:23:07.484Z,4.53
2023-05-17T00:23:34.650Z,4.53
2023-05-17T00:23:55.569Z,4.70
2023-05-17T00:24:27.509Z,4.70
2023-05-17T00:25:00.643Z,4.70
2023-05-17T00:25:31.553Z,4.70
2023-05-17T00:26:04.408Z,4.70
2023-05-17T00:26:35.423Z,4.70
2023-05-17T00:27:08.517Z,4.53
2023-05-17T00:27:34.460Z,4.53
2023-05-17T00:27:56.061Z,4.53
2023-05-17T00:28:27.577Z,4.58
2023-05-17T00:28:59.964Z,4.58
2023-05-17T00:29:31.455Z,4.75
2023-05-17T00:30:03.683Z,4.58
2023-05-17T00:30:34.653Z,4.58
2023-05-17T00:31:06.879Z,4.58
2023-05-17T00:31:39.966Z,4.58
2023-05-17T00:32:12.053Z,4.58
2023-05-17T00:32:34.498Z,4.58
2023-05-17T00:32:59.932Z,4.58
2023-05-17T00:33:31.465Z,4.58
2023-05-17T00:34:05.310Z,4.75
2023-05-17T00:34:34.530Z,4.58
2023-05-17T00:35:08.388Z,4.75
2023-05-17T00:35:34.496Z,4.75
2023-05-17T00:35:55.601Z,4.75
2023-05-17T00:36:27.482Z,4.70
2023-05-17T00:36:59.924Z,4.70
2023-05-17T00:37:31.489Z,4.70
2023-05-17T00:38:03.448Z,4.70
2023-05-17T00:38:34.510Z,4.70
2023-05-17T00:39:07.476Z,4.70
2023-05-17T00:39:34.538Z,4.70
2023-05-17T00:39:55.619Z,4.70
2023-05-17T00:40:30.192Z,4.70
2023-05-17T00:40:59.932Z,4.70
2023-05-17T00:41:32.326Z,4.60
2023-05-17T00:42:03.501Z,4.60
2023-05-17T00:42:35.604Z,4.60
2023-05-17T00:43:07.590Z,4.60
2023-05-17T00:43:34.481Z,4.60
2023-05-17T00:43:55.597Z,4.60
2023-05-17T00:44:27.436Z,4.77
2023-05-17T00:45:00.961Z,4.77
2023-05-17T00:45:31.435Z,4.77
2023-05-17T00:46:04.372Z,4.77
2023-05-17T00:46:34.487Z,4.77
2023-05-17T00:47:08.499Z,4.60
2023-05-17T00:47:34.555Z,4.60
2023-05-17T00:47:56.419Z,4.60
2023-05-17T00:48:27.569Z,4.77
2023-05-17T00:48:59.813Z,4.60
2023-05-17T00:49:31.482Z,4.60
2023-05-17T00:50:09.634Z,4.60
2023-05-17T00:50:20.379Z,4.60
2023-05-17T00:50:51.459Z,4.60
2023-05-17T00:51:24.256Z,4.70
2023-05-17T00:51:41.527Z,4.70
2023-05-17T00:52:11.855Z,4.70
2023-05-17T00:52:34.755Z,4.88
2023-05-17T00:52:59.792Z,4.70
2023-05-17T00:53:32.939Z,4.88
2023-05-17T00:54:03.431Z,4.88
2023-05-17T00:54:36.717Z,4.88
2023-05-17T00:55:07.467Z,4.88
2023-05-17T00:55:34.515Z,4.88
2023-05-17T00:55:55.588Z,4.88
2023-05-17T00:56:27.472Z,4.88
2023-05-17T00:57:00.331Z,4.88
2023-05-17T00:57:31.503Z,4.88
2023-05-17T00:58:04.398Z,4.88
2023-05-17T00:58:34.474Z,4.88
2023-05-17T00:59:08.344Z,4.88
2023-05-17T00:59:34.509Z,4.88
2023-05-17T00:59:55.617Z,4.88
2023-05-17T01:00:27.558Z,4.88
2023-05-17T01:00:59.824Z,4.70
2023-05-17T01:01:31.541Z,4.70
2023-05-17T01:02:03.456Z,4.70
2023-05-17T01:02:34.619Z,4.70
2023-05-17T01:03:07.692Z,4.70
2023-05-17T01:03:34.787Z,4.70
2023-05-17T01:03:55.748Z,4.70
2023-05-17T01:04:28.571Z,4.93
2023-05-17T01:04:59.976Z,4.93
2023-05-17T01:05:32.389Z,4.93
2023-05-17T01:06:03.413Z,4.88
2023-05-17T01:06:36.437Z,4.88
2023-05-17T01:07:07.489Z,4.88
2023-05-17T01:07:34.514Z,4.88
2023-05-17T01:07:57.015Z,4.88
2023-05-17T01:08:27.554Z,4.88
2023-05-17T01:09:00.315Z,4.88
2023-05-17T01:09:31.502Z,4.88
2023-05-17T01:10:04.424Z,4.88
2023-05-17T01:10:34.564Z,4.88
2023-05-17T01:11:08.606Z,4.88
2023-05-17T01:11:34.566Z,4.88
2023-05-17T01:11:55.616Z,4.77
2023-05-17T01:12:27.415Z,4.77
2023-05-17T01:13:05.548Z,4.77
2023-05-17T01:13:16.330Z,4.77
2023-05-17T01:13:34.527Z,4.77
2023-05-17T01:14:03.435Z,4.77
2023-05-17T01:14:34.548Z,4.77
2023-05-17T01:15:08.530Z,4.94
2023-05-17T01:15:34.586Z,4.94
2023-05-17T01:15:55.484Z,4.94
2023-05-17T01:16:28.384Z,4.94
2023-05-17T01:16:59.889Z,4.83
2023-05-17T01:17:31.522Z,4.83
2023-05-17T01:18:04.485Z,4.83
2023-05-17T01:18:34.807Z,4.83
2023-05-17T01:19:08.435Z,4.83
2023-05-17T01:19:34.973Z,4.83
2023-05-17T01:19:55.595Z,4.83
2023-05-17T01:20:27.530Z,4.83
2023-05-17T01:20:59.837Z,4.83
2023-05-17T01:21:31.533Z,4.83
2023-05-17T01:22:03.426Z,4.71
2023-05-17T01:22:34.518Z,4.71
2023-05-17T01:23:07.462Z,4.87
2023-05-17T01:23:34.530Z,4.87
2023-05-17T01:23:55.527Z,4.87
2023-05-17T01:24:28.387Z,4.87
2023-05-17T01:24:59.752Z,4.87
2023-05-17T01:25:32.309Z,4.76
2023-05-17T01:26:03.483Z,4.76
2023-05-17T01:26:36.474Z,4.87
2023-05-17T01:27:07.551Z,4.87
2023-05-17T01:27:34.561Z,4.87
2023-05-17T01:27:55.479Z,4.87
2023-05-17T01:28:28.024Z,4.87
2023-05-17T01:29:00.336Z,4.87
2023-05-17T01:29:31.477Z,4.87
2023-05-17T01:30:04.467Z,4.87
2023-05-17T01:30:35.052Z,4.87
2023-05-17T01:31:09.317Z,4.76
2023-05-17T01:31:34.867Z,4.76
2023-05-17T01:31:55.620Z,4.76
2023-05-17T01:32:27.492Z,4.76
2023-05-17T01:32:59.576Z,4.76
2023-05-17T01:33:31.630Z,4.76
2023-05-17T01:34:03.526Z,4.93
2023-05-17T01:34:35.445Z,4.93
2023-05-17T01:34:51.516Z,4.93
2023-05-17T01:35:24.317Z,4.93
2023-05-17T01:35:41.850Z,4.93
2023-05-17T01:36:11.827Z,4.88
2023-05-17T01:36:34.575Z,4.88
2023-05-17T01:36:59.794Z,4.88
2023-05-17T01:37:32.316Z,4.88
2023-05-17T01:38:03.389Z,4.88
2023-05-17T01:38:36.224Z,4.88
2023-05-17T01:39:07.459Z,4.88
2023-05-17T01:39:34.512Z,4.88
2023-05-17T01:39:55.434Z,4.88
2023-05-17T01:40:27.451Z,4.93
2023-05-17T01:41:00.340Z,4.93
2023-05-17T01:41:31.505Z,4.93
2023-05-17T01:42:04.310Z,4.93
2023-05-17T01:42:34.633Z,4.93
2023-05-17T01:43:08.347Z,4.93
2023-05-17T01:43:34.565Z,4.93
2023-05-17T01:43:55.494Z,4.93
2023-05-17T01:44:27.392Z,4.93
2023-05-17T01:44:59.834Z,4.93
2023-05-17T01:45:31.475Z,4.93
2023-05-17T01:46:03.431Z,4.83
2023-05-17T01:46:34.605Z,4.83
2023-05-17T01:47:07.442Z,4.83
2023-05-17T01:47:34.645Z,4.93
2023-05-17T01:47:57.188Z,5.09
2023-05-17T01:48:28.350Z,5.09
2023-05-17T01:48:59.822Z,5.09
2023-05-17T01:49:32.413Z,5.09
2023-05-17T01:50:03.518Z,5.09
2023-05-17T01:50:35.748Z,5.09
2023-05-17T01:51:07.500Z,5.09
2023-05-17T01:51:34.515Z,5.09
2023-05-17T01:51:55.380Z,5.09
2023-05-17T01:52:27.419Z,5.09
2023-05-17T01:53:00.429Z,4.93
2023-05-17T01:53:31.526Z,4.93
2023-05-17T01:54:04.314Z,4.93
2023-05-17T01:54:34.515Z,4.93
2023-05-17T01:55:08.316Z,5.04
2023-05-17T01:55:35.090Z,5.04
2023-05-17T01:55:55.427Z,5.04
2023-05-17T01:56:27.406Z,5.04
2023-05-17T01:56:59.681Z,5.04
2023-05-17T01:57:31.436Z,5.04
2023-05-17T01:58:03.416Z,5.04
2023-05-17T01:58:34.465Z,5.04
2023-05-17T01:59:07.393Z,5.04
2023-05-17T01:59:34.554Z,5.04
2023-05-17T01:59:55.668Z,5.04
2023-05-17T02:00:28.324Z,5.04
2023-05-17T02:00:59.900Z,5.04
2023-05-17T02:01:32.349Z,5.04
2023-05-17T02:02:03.488Z,5.04
2023-05-17T02:02:36.228Z,5.04
2023-05-17T02:03:07.386Z,5.04
2023-05-17T02:03:34.535Z,5.04
2023-05-17T02:03:55.438Z,5.04
2023-05-17T02:04:27.383Z,5.04
2023-05-17T02:05:00.538Z,5.04
2023-05-17T02:05:31.417Z,5.04
2023-05-17T02:06:04.223Z,5.04
2023-05-17T02:06:34.513Z,5.19
2023-05-17T02:06:51.554Z,5.19
2023-05-17T02:07:23.772Z,5.19
2023-05-17T02:07:40.695Z,5.19
2023-05-17T02:08:12.377Z,5.19
2023-05-17T02:08:34.494Z,5.19
2023-05-17T02:08:59.737Z,5.19
2023-05-17T02:09:31.392Z,5.19
2023-05-17T02:10:03.411Z,5.04
2023-05-17T02:10:34.775Z,5.04
2023-05-17T02:10:51.257Z,5.19
2023-05-17T02:11:24.326Z,5.09
2023-05-17T02:11:42.566Z,5.09
2023-05-17T02:12:11.829Z,5.09
2023-05-17T02:12:34.539Z,5.09
2023-05-17T02:12:59.748Z,5.09
2023-05-17T02:13:32.373Z,5.09
2023-05-17T02:14:03.425Z,5.09
2023-05-17T02:14:36.990Z,5.09
2023-05-17T02:15:07.457Z,4.98
2023-05-17T02:15:35.010Z,4.98
2023-05-17T02:15:55.391Z,4.98
2023-05-17T02:16:27.364Z,4.98
2023-05-17T02:17:00.346Z,4.86
2023-05-17T02:17:31.435Z,4.86
2023-05-17T02:18:04.394Z,4.86
2023-05-17T02:18:34.732Z,4.86
2023-05-17T02:18:51.607Z,4.91
2023-05-17T02:19:23.719Z,4.91
2023-05-17T02:19:40.580Z,4.91
2023-05-17T02:20:12.395Z,4.91
2023-05-17T02:20:34.479Z,4.91
2023-05-17T02:20:59.797Z,4.91
2023-05-17T02:21:31.391Z,4.91
2023-05-17T02:22:04.398Z,4.91
2023-05-17T02:22:34.575Z,4.91
2023-05-17T02:22:51.370Z,4.91
2023-05-17T02:23:24.368Z,4.91
2023-05-17T02:23:41.558Z,4.91
2023-05-17T02:24:12.059Z,5.02
2023-05-17T02:24:34.491Z,5.02
2023-05-17T02:24:59.768Z,5.02
2023-05-17T02:25:32.386Z,5.02
2023-05-17T02:26:03.378Z,5.02
2023-05-17T02:26:36.829Z,5.02
2023-05-17T02:27:07.380Z,5.02
2023-05-17T02:27:34.734Z,5.02
2023-05-17T02:27:56.255Z,5.02
2023-05-17T02:28:27.456Z,5.02
2023-05-17T02:29:00.479Z,5.02
2023-05-17T02:29:31.390Z,5.02
2023-05-17T02:30:04.638Z,5.02
2023-05-17T02:30:35.067Z,5.02
2023-05-17T02:31:08.330Z,5.02
2023-05-17T02:31:34.477Z,5.02
2023-05-17T02:31:55.393Z,5.02
2023-05-17T02:32:27.510Z,4.86
2023-05-17T02:32:59.957Z,4.91
2023-05-17T02:33:31.442Z,4.91
2023-05-17T02:34:03.417Z,4.91
2023-05-17T02:34:34.653Z,4.86
2023-05-17T02:35:07.425Z,5.02
2023-05-17T02:35:34.468Z,5.02
2023-05-17T02:35:55.413Z,5.02
2023-05-17T02:36:28.294Z,4.86
2023-05-17T02:36:59.789Z,5.02
2023-05-17T02:37:32.306Z,5.02
2023-05-17T02:38:03.396Z,4.86
2023-05-17T02:38:36.273Z,5.02
2023-05-17T02:39:07.424Z,5.07
2023-05-17T02:39:35.216Z,4.91
2023-05-17T02:39:55.361Z,4.91
2023-05-17T02:40:27.462Z,4.91
2023-05-17T02:41:00.369Z,4.91
2023-05-17T02:41:31.413Z,4.91
2023-05-17T02:42:04.266Z,4.91
2023-05-17T02:42:34.516Z,4.91
2023-05-17T02:42:51.381Z,4.91
2023-05-17T02:43:23.774Z,4.91
2023-05-17T02:43:40.664Z,4.91
2023-05-17T02:44:12.573Z,4.91
2023-05-17T02:44:35.153Z,4.91
2023-05-17T02:44:59.745Z,4.91
2023-05-17T02:45:31.410Z,4.91
2023-05-17T02:46:03.390Z,4.91
2023-05-17T02:46:35.796Z,5.02
2023-05-17T02:47:07.424Z,5.02
2023-05-17T02:47:35.064Z,5.02
2023-05-17T02:47:55.459Z,5.02
2023-05-17T02:48:28.275Z,5.02
2023-05-17T02:48:59.802Z,5.14
2023-05-17T02:49:32.442Z,5.14
2023-05-17T02:50:03.600Z,5.14
2023-05-17T02:50:35.513Z,5.14
2023-05-17T02:51:07.507Z,5.14
2023-05-17T02:51:34.455Z,5.02
2023-05-17T02:51:55.387Z,5.02
2023-05-17T02:52:27.410Z,5.02
2023-05-17T02:53:00.357Z,5.02
2023-05-17T02:53:31.329Z,5.02
2023-05-17T02:54:04.389Z,5.02
2023-05-17T02:54:35.835Z,5.02
2023-05-17T02:55:08.386Z,5.02
2023-05-17T02:55:35.075Z,4.91
2023-05-17T02:55:55.391Z,4.91
2023-05-17T02:56:27.458Z,4.91
2023-05-17T02:57:00.216Z,4.91
2023-05-17T02:57:31.930Z,4.91
2023-05-17T02:58:03.402Z,4.91
2023-05-17T02:58:34.463Z,4.91
2023-05-17T02:58:51.388Z,4.91
2023-05-17T02:59:24.370Z,4.91
2023-05-17T02:59:43.040Z,4.91
2023-05-17T03:00:11.856Z,4.91
2023-05-17T03:00:34.510Z,4.91
2023-05-17T03:00:59.409Z,4.86
2023-05-17T03:01:32.482Z,4.86
2023-05-17T03:02:03.379Z,4.86
2023-05-17T03:02:36.618Z,4.86
2023-05-17T03:03:07.420Z,4.75
2023-05-17T03:03:34.705Z,4.92
2023-05-17T03:03:55.616Z,4.92
2023-05-17T03:04:27.462Z,4.92
2023-05-17T03:05:00.588Z,4.92
2023-05-17T03:05:31.447Z,4.92
2023-05-17T03:06:04.190Z,4.92
2023-05-17T03:06:34.556Z,4.81
2023-05-17T03:06:51.367Z,4.81
2023-05-17T03:07:23.453Z,4.81
2023-05-17T03:07:40.591Z,4.81
2023-05-17T03:08:12.374Z,4.81
2023-05-17T03:08:34.546Z,4.81
2023-05-17T03:08:59.883Z,4.81
2023-05-17T03:09:31.460Z,4.69
2023-05-17T03:10:03.496Z,4.69
2023-05-17T03:10:34.594Z,4.69
2023-05-17T03:10:51.078Z,4.69
2023-05-17T03:11:24.483Z,4.69
2023-05-17T03:11:41.859Z,4.69
2023-05-17T03:12:11.796Z,4.84
2023-05-17T03:12:35.077Z,4.69
2023-05-17T03:12:59.978Z,4.69
2023-05-17T03:13:32.481Z,4.69
2023-05-17T03:14:04.762Z,4.73
2023-05-17T03:14:35.829Z,4.73
2023-05-17T03:15:07.531Z,4.73
2023-05-17T03:15:34.895Z,4.73
2023-05-17T03:15:55.378Z,4.73
2023-05-17T03:16:27.495Z,4.73
2023-05-17T03:17:00.547Z,4.73
2023-05-17T03:17:31.474Z,4.73
2023-05-17T03:18:04.226Z,4.73
2023-05-17T03:18:34.847Z,4.73
2023-05-17T03:18:51.561Z,4.73
2023-05-17T03:19:23.578Z,4.73
2023-05-17T03:19:40.606Z,4.73
2023-05-17T03:20:14.044Z,4.73
2023-05-17T03:20:35.061Z,4.73
2023-05-17T03:20:59.503Z,4.73
2023-05-17T03:21:31.343Z,4.73
2023-05-17T03:22:03.348Z,4.73
2023-05-17T03:22:35.389Z,4.73
2023-05-17T03:23:07.422Z,4.88
2023-05-17T03:23:34.479Z,4.88
2023-05-17T03:23:55.394Z,4.88
2023-05-17T03:24:28.250Z,4.88
2023-05-17T03:24:59.384Z,4.88
2023-05-17T03:25:32.264Z,4.88
2023-05-17T03:26:03.372Z,4.88
2023-05-17T03:26:36.033Z,4.88
2023-05-17T03:27:07.435Z,4.88
2023-05-17T03:27:34.558Z,4.88
2023-05-17T03:27:55.379Z,4.88
2023-05-17T03:28:27.457Z,4.83
2023-05-17T03:29:00.565Z,4.83
2023-05-17T03:29:31.471Z,4.83
2023-05-17T03:30:04.447Z,4.83
2023-05-17T03:30:34.531Z,4.83
2023-05-17T03:30:51.399Z,4.83
2023-05-17T03:31:23.359Z,4.83
2023-05-17T03:31:40.593Z,4.83
2023-05-17T03:32:12.555Z,4.83
2023-05-17T03:32:34.495Z,4.83
2023-05-17T03:32:59.458Z,4.99
2023-05-17T03:33:31.377Z,4.83
2023-05-17T03:34:03.465Z,4.83
2023-05-17T03:34:35.445Z,4.83
2023-05-17T03:34:51.400Z,4.99
2023-05-17T03:35:24.569Z,4.88
2023-05-17T03:35:41.360Z,4.88
2023-05-17T03:36:11.366Z,4.88
2023-05-17T03:36:34.742Z,4.88
2023-05-17T03:36:59.375Z,4.88
2023-05-17T03:37:32.251Z,4.88
2023-05-17T03:38:03.382Z,4.77
2023-05-17T03:38:36.493Z,4.77
2023-05-17T03:39:07.385Z,4.77
2023-05-17T03:39:34.489Z,4.77
2023-05-17T03:39:55.412Z,4.65
2023-05-17T03:40:27.411Z,4.65
2023-05-17T03:41:00.707Z,4.65
2023-05-17T03:41:31.347Z,4.65
2023-05-17T03:42:04.232Z,4.65
2023-05-17T03:42:34.648Z,4.65
2023-05-17T03:42:51.632Z,4.77
2023-05-17T03:43:23.871Z,4.77
2023-05-17T03:43:40.628Z,4.77
2023-05-17T03:44:12.592Z,4.77
2023-05-17T03:44:35.038Z,4.65
2023-05-17T03:44:59.650Z,4.65
2023-05-17T03:45:31.453Z,4.65
2023-05-17T03:46:03.455Z,4.65
2023-05-17T03:46:34.764Z,4.65
2023-05-17T03:46:51.306Z,4.65
2023-05-17T03:47:24.701Z,4.65
2023-05-17T03:47:41.668Z,4.65
2023-05-17T03:48:11.406Z,4.80
2023-05-17T03:48:36.352Z,4.65
2023-05-17T03:48:59.612Z,4.65
2023-05-17T03:49:32.447Z,4.80
2023-05-17T03:50:03.507Z,4.80
2023-05-17T03:50:35.910Z,4.80
2023-05-17T03:51:07.649Z,4.80
2023-05-17T03:51:34.517Z,4.80
2023-05-17T03:51:55.411Z,4.80
2023-05-17T03:52:27.509Z,4.80
2023-05-17T03:53:00.809Z,4.80
2023-05-17T03:53:31.401Z,4.80
2023-05-17T03:54:05.367Z,4.80
2023-05-17T03:54:34.478Z,4.80
2023-05-17T03:54:51.424Z,4.80
2023-05-17T03:55:23.578Z,4.80
2023-05-17T03:55:40.741Z,4.80
2023-05-17T03:56:12.718Z,4.80
2023-05-17T03:56:35.102Z,4.80
2023-05-17T03:56:59.367Z,4.92
2023-05-17T03:57:31.398Z,4.92
2023-05-17T03:58:03.420Z,4.92
2023-05-17T03:58:35.176Z,4.92
2023-05-17T03:59:07.433Z,4.92
2023-05-17T03:59:34.562Z,4.92
2023-05-17T03:59:55.443Z,4.92
2023-05-17T04:00:28.356Z,4.92
2023-05-17T04:00:59.343Z,4.92
2023-05-17T04:01:32.294Z,4.92
2023-05-17T04:02:03.417Z,4.92
2023-05-17T04:02:35.437Z,4.92
2023-05-17T04:03:07.532Z,4.92
2023-05-17T04:03:34.571Z,4.92
2023-05-17T04:03:55.383Z,4.92
2023-05-17T04:04:27.528Z,4.77
2023-05-17T04:05:00.991Z,4.77
2023-05-17T04:05:31.569Z,4.92
2023-05-17T04:06:04.315Z,4.77
2023-05-17T04:06:34.584Z,4.77
2023-05-17T04:06:51.472Z,4.77
2023-05-17T04:07:23.408Z,4.88
2023-05-17T04:07:40.574Z,4.88
2023-05-17T04:08:12.649Z,4.88
2023-05-17T04:08:34.616Z,4.88
2023-05-17T04:08:59.501Z,4.88
2023-05-17T04:09:31.462Z,4.88
2023-05-17T04:10:04.434Z,4.88
2023-05-17T04:10:34.523Z,4.88
2023-05-17T04:10:51.600Z,4.88
2023-05-17T04:11:24.567Z,4.88
2023-05-17T04:11:41.366Z,4.88
2023-05-17T04:12:11.547Z,4.88
2023-05-17T04:12:34.566Z,4.88
2023-05-17T04:12:59.468Z,4.88
2023-05-17T04:13:32.957Z,4.88
2023-05-17T04:14:03.469Z,4.88
2023-05-17T04:14:36.445Z,4.88
2023-05-17T04:15:07.464Z,4.99
2023-05-17T04:15:34.658Z,4.99
2023-05-17T04:15:55.384Z,4.99
2023-05-17T04:16:27.537Z,4.99
2023-05-17T04:17:00.800Z,4.99
2023-05-17T04:17:31.462Z,4.99
2023-05-17T04:18:04.320Z,4.99
2023-05-17T04:18:34.705Z,4.99
2023-05-17T04:18:51.516Z,4.99
2023-05-17T04:19:23.491Z,4.99
2023-05-17T04:19:40.682Z,4.99
2023-05-17T04:20:12.567Z,4.99
2023-05-17T04:20:35.059Z,4.99
2023-05-17T04:20:59.401Z,4.99
2023-05-17T04:21:31.366Z,4.99
2023-05-17T04:22:03.391Z,5.04
2023-05-17T04:22:35.006Z,5.04
2023-05-17T04:23:07.489Z,5.04
2023-05-17T04:23:35.451Z,5.04
2023-05-17T04:23:55.475Z,5.04
2023-05-17T04:24:28.468Z,5.04
2023-05-17T04:24:59.394Z,4.88
2023-05-17T04:25:32.241Z,4.99
2023-05-17T04:26:03.532Z,4.99
2023-05-17T04:26:35.521Z,4.99
2023-05-17T04:27:07.487Z,4.99
2023-05-17T04:27:34.720Z,4.99
2023-05-17T04:27:56.429Z,4.99
2023-05-17T04:28:27.465Z,4.99
2023-05-17T04:29:00.849Z,4.99
2023-05-17T04:29:31.348Z,4.99
2023-05-17T04:30:04.564Z,5.11
2023-05-17T04:30:34.561Z,5.11
2023-05-17T04:31:06.759Z,5.11
2023-05-17T04:31:24.559Z,5.11
2023-05-17T04:31:41.335Z,5.11
2023-05-17T04:32:11.342Z,4.96
2023-05-17T04:32:34.937Z,4.96
2023-05-17T04:33:00.152Z,5.07
2023-05-17T04:33:32.333Z,5.07
2023-05-17T04:34:03.615Z,5.07
2023-05-17T04:34:35.764Z,5.07
2023-05-17T04:35:07.926Z,5.18
2023-05-17T04:35:34.496Z,5.18
2023-05-17T04:35:55.404Z,5.18
2023-05-17T04:36:27.491Z,5.23
2023-05-17T04:37:00.631Z,5.23
2023-05-17T04:37:31.923Z,5.07
2023-05-17T04:38:04.198Z,5.07
2023-05-17T04:38:35.182Z,5.07
2023-05-17T04:39:08.596Z,5.18
2023-05-17T04:39:35.130Z,5.18
2023-05-17T04:39:55.451Z,5.18
2023-05-17T04:40:27.418Z,5.18
2023-05-17T04:40:59.388Z,5.18
2023-05-17T04:41:31.402Z,5.30
2023-05-17T04:42:03.396Z,5.41
2023-05-17T04:42:34.549Z,5.41
2023-05-17T04:42:51.428Z,5.25
2023-05-17T04:43:24.669Z,5.36
2023-05-17T04:43:41.525Z,5.36
2023-05-17T04:44:11.405Z,5.41
2023-05-17T04:44:34.905Z,5.24
2023-05-17T04:44:59.450Z,5.35
2023-05-17T04:45:33.374Z,5.47
2023-05-17T04:46:03.418Z,5.58
2023-05-17T04:46:35.638Z,5.58
2023-05-17T04:47:07.376Z,5.58
2023-05-17T04:47:34.697Z,5.58
2023-05-17T04:47:55.495Z,5.42
2023-05-17T04:48:28.512Z,5.36
2023-05-17T04:49:00.835Z,5.48
2023-05-17T04:49:31.352Z,5.59
2023-05-17T04:50:04.418Z,5.53
2023-05-17T04:50:34.558Z,5.58
2023-05-17T04:50:51.193Z,5.69
2023-05-17T04:51:23.425Z,5.69
2023-05-17T04:51:40.596Z,5.69
2023-05-17T04:52:12.681Z,5.53
2023-05-17T04:52:34.589Z,5.64
2023-05-17T04:52:59.334Z,5.81
2023-05-17T04:53:31.416Z,5.64
2023-05-17T04:54:03.395Z,5.57
2023-05-17T04:54:37.206Z,5.57
2023-05-17T04:55:07.397Z,5.68
2023-05-17T04:55:34.684Z,5.68
2023-05-17T04:55:55.371Z,5.73
2023-05-17T04:56:28.330Z,5.73
2023-05-17T04:56:59.445Z,5.55
2023-05-17T04:57:32.327Z,5.55
2023-05-17T04:58:03.381Z,5.55
2023-05-17T04:58:35.276Z,5.55
2023-05-17T04:59:07.621Z,5.73
2023-05-17T04:59:35.466Z,5.68
2023-05-17T04:59:55.544Z,5.57
2023-05-17T05:00:27.876Z,5.57
2023-05-17T05:01:00.740Z,5.75
2023-05-17T05:01:31.453Z,5.64
2023-05-17T05:02:04.546Z,5.64
2023-05-17T05:02:34.561Z,5.64
2023-05-17T05:02:51.688Z,5.64
2023-05-17T05:03:23.473Z,5.64
2023-05-17T05:03:40.771Z,5.64
2023-05-17T05:04:13.313Z,5.64
2023-05-17T05:04:35.326Z,5.75
2023-05-17T05:04:59.369Z,5.68
2023-05-17T05:05:31.414Z,5.73
2023-05-17T05:06:03.313Z,5.73
2023-05-17T05:06:34.542Z,5.84
2023-05-17T05:06:51.406Z,5.84
2023-05-17T05:07:24.782Z,5.84
2023-05-17T05:07:41.717Z,5.84
2023-05-17T05:08:11.320Z,5.84
2023-05-17T05:08:34.627Z,5.66
2023-05-17T05:08:59.538Z,5.78
2023-05-17T05:09:32.238Z,5.78
2023-05-17T05:10:03.499Z,5.78
2023-05-17T05:10:35.392Z,5.78
2023-05-17T05:11:07.389Z,5.96
2023-05-17T05:11:34.518Z,5.96
2023-05-17T05:11:55.430Z,5.96
2023-05-17T05:12:27.418Z,5.78
2023-05-17T05:13:00.814Z,5.78
2023-05-17T05:13:31.397Z,5.78
2023-05-17T05:14:04.570Z,5.78
2023-05-17T05:14:34.517Z,5.78
2023-05-17T05:14:51.457Z,5.89
2023-05-17T05:15:23.486Z,5.89
2023-05-17T05:15:40.501Z,5.89
2023-05-17T05:16:12.622Z,5.99
2023-05-17T05:16:34.509Z,5.99
2023-05-17T05:16:59.442Z,5.99
2023-05-17T05:17:31.477Z,6.04
2023-05-17T05:18:03.581Z,5.88
2023-05-17T05:18:34.611Z,5.70
2023-05-17T05:18:51.583Z,5.88
2023-05-17T05:19:24.641Z,5.88
2023-05-17T05:19:41.554Z,5.88
2023-05-17T05:20:11.389Z,5.88
2023-05-17T05:20:34.590Z,5.88
2023-05-17T05:20:59.359Z,5.70
2023-05-17T05:21:32.254Z,5.81
2023-05-17T05:22:03.334Z,5.92
2023-05-17T05:22:35.277Z,5.92
2023-05-17T05:23:07.398Z,5.92
2023-05-17T05:23:34.511Z,5.92
2023-05-17T05:23:55.357Z,5.92
2023-05-17T05:24:27.351Z,5.92
2023-05-17T05:25:01.175Z,6.03
2023-05-17T05:25:31.494Z,6.03
2023-05-17T05:26:05.223Z,5.85
2023-05-17T05:26:35.060Z,6.03
2023-05-17T05:27:08.483Z,5.85
2023-05-17T05:27:34.533Z,6.03
2023-05-17T05:27:55.386Z,6.14
2023-05-17T05:28:27.513Z,5.96
2023-05-17T05:28:59.433Z,6.01
2023-05-17T05:29:31.449Z,6.11
2023-05-17T05:30:03.429Z,6.11
2023-05-17T05:30:34.559Z,6.23
2023-05-17T05:30:51.474Z,6.23
2023-05-17T05:31:24.552Z,6.34
2023-05-17T05:31:41.384Z,6.34
2023-05-17T05:32:11.386Z,6.27
2023-05-17T05:32:34.677Z,6.07
2023-05-17T05:32:59.431Z,6.12
2023-05-17T05:33:32.330Z,6.12
2023-05-17T05:34:03.583Z,6.23
2023-05-17T05:34:38.414Z,6.23
2023-05-17T05:35:07.521Z,6.17
2023-05-17T05:35:34.978Z,6.27
2023-05-17T05:35:55.430Z,6.19
2023-05-17T05:36:27.361Z,6.19
2023-05-17T05:37:00.585Z,6.43
2023-05-17T05:37:31.396Z,6.43
2023-05-17T05:38:04.448Z,6.61
2023-05-17T05:38:34.616Z,6.43
2023-05-17T05:38:51.127Z,6.24
2023-05-17T05:39:24.613Z,6.19
2023-05-17T05:39:41.579Z,6.19
2023-05-17T05:40:11.306Z,6.19
2023-05-17T05:40:34.631Z,6.38
2023-05-17T05:40:59.394Z,6.27
2023-05-17T05:41:32.163Z,6.08
2023-05-17T05:42:03.435Z,6.08
2023-05-17T05:42:35.387Z,6.38
2023-05-17T05:43:07.388Z,6.53
2023-05-17T05:43:34.661Z,6.65
2023-05-17T05:43:55.360Z,6.94
2023-05-17T05:44:27.361Z,6.56
2023-05-17T05:45:01.694Z,6.56
2023-05-17T05:45:31.419Z,6.37
2023-05-17T05:46:04.234Z,6.56
2023-05-17T05:46:34.581Z,6.56
2023-05-17T05:46:51.473Z,6.56
2023-05-17T05:47:23.637Z,6.65
2023-05-17T05:47:40.797Z,6.65
2023-05-17T05:48:12.725Z,6.65
2023-05-17T05:48:34.783Z,6.65
2023-05-17T05:48:59.615Z,6.46
2023-05-17T05:49:31.340Z,6.46
2023-05-17T05:50:03.406Z,6.46
2023-05-17T05:50:34.692Z,6.46
2023-05-17T05:50:51.164Z,6.65
2023-05-17T05:51:24.630Z,6.61
2023-05-17T05:51:41.642Z,6.61
2023-05-17T05:52:11.437Z,6.43
2023-05-17T05:52:34.640Z,6.43
2023-05-17T05:53:07.060Z,6.24
2023-05-17T05:53:32.482Z,6.34
2023-05-17T05:54:03.404Z,6.27
2023-05-17T05:54:37.036Z,6.27
2023-05-17T05:55:07.786Z,6.37
2023-05-17T05:55:34.685Z,6.37
2023-05-17T05:55:55.488Z,6.53
2023-05-17T05:56:27.379Z,6.43
2023-05-17T05:57:00.703Z,6.35
2023-05-17T05:57:31.466Z,6.54
2023-05-17T05:58:04.456Z,6.54
2023-05-17T05:58:34.683Z,6.75
2023-05-17T05:58:51.485Z,6.54
2023-05-17T05:59:23.407Z,6.43
2023-05-17T05:59:40.656Z,6.43
2023-05-17T06:00:12.575Z,6.43
2023-05-17T06:00:35.151Z,6.54
2023-05-17T06:00:59.382Z,6.54
2023-05-17T06:01:31.435Z,6.65
2023-05-17T06:02:03.401Z,6.85
2023-05-17T06:02:34.815Z,6.65
2023-05-17T06:02:51.452Z,6.65
2023-05-17T06:03:24.646Z,6.45
2023-05-17T06:03:41.559Z,6.45
2023-05-17T06:04:11.437Z,6.54
2023-05-17T06:04:44.563Z,6.54
2023-05-17T06:04:59.365Z,6.54
2023-05-17T06:05:32.421Z,6.63
2023-05-17T06:06:03.491Z,6.63
2023-05-17T06:06:37.315Z,6.83
2023-05-17T06:07:07.591Z,6.54
2023-05-17T06:07:34.554Z,6.54
2023-05-17T06:07:55.442Z,6.65
2023-05-17T06:08:28.245Z,6.45
2023-05-17T06:09:00.797Z,6.65
2023-05-17T06:09:31.488Z,6.65
2023-05-17T06:10:04.495Z,6.45
2023-05-17T06:10:35.220Z,6.26
2023-05-17T06:11:06.798Z,6.56
2023-05-17T06:11:24.536Z,6.61
2023-05-17T06:11:41.489Z,6.61
2023-05-17T06:12:11.314Z,6.52
2023-05-17T06:12:34.696Z,6.31
2023-05-17T06:12:59.361Z,6.31
2023-05-17T06:13:32.269Z,6.52
2023-05-17T06:14:03.472Z,6.54
2023-05-17T06:14:37.741Z,6.54
2023-05-17T06:15:07.421Z,6.33
2023-05-17T06:15:34.722Z,6.54
2023-05-17T06:15:55.404Z,6.74
2023-05-17T06:16:27.377Z,6.54
2023-05-17T06:17:00.730Z,6.54
2023-05-17T06:17:31.360Z,6.31
2023-05-17T06:18:04.495Z,6.21
2023-05-17T06:18:35.322Z,6.42
2023-05-17T06:19:08.370Z,6.21
2023-05-17T06:19:34.794Z,6.21
2023-05-17T06:19:55.594Z,6.21
2023-05-17T06:20:27.582Z,6.42
2023-05-17T06:20:59.415Z,6.31
2023-05-17T06:21:31.459Z,6.43
2023-05-17T06:22:03.393Z,6.22